createdAt,value
2022-11-08T00:02:08.233Z,98476.47
2022-11-08T00:04:34.811Z,98468.19
2022-11-08T00:07:19.589Z,98482.38
2022-11-08T00:10:04.604Z,98475.88
2022-11-08T00:12:49.270Z,98473.88
2022-11-08T00:15:15.820Z,98477.97
2022-11-08T00:17:42.252Z,98487.06
2022-11-08T00:20:09.563Z,98474.25
2022-11-08T00:22:36.024Z,98473.78
2022-11-08T00:25:02.508Z,98469.34
2022-11-08T00:27:29.053Z,98474.25
2022-11-08T00:29:55.502Z,98461.53
2022-11-08T00:32:24.165Z,98459.66
2022-11-08T00:34:51.600Z,98461.28
2022-11-08T00:37:20.244Z,98453.63
2022-11-08T00:39:47.378Z,98454.78
2022-11-08T00:42:14.202Z,98453.28
2022-11-08T00:44:40.772Z,98454.56
2022-11-08T00:47:07.210Z,98446.16
2022-11-08T00:49:33.941Z,98448.72
2022-11-08T00:52:00.451Z,98437.66
2022-11-08T00:54:26.899Z,98434.97
2022-11-08T00:56:53.366Z,98434.13
2022-11-08T00:59:20.279Z,98438.47
2022-11-08T01:01:47.412Z,98432.97
2022-11-08T01:04:16.351Z,98433.09
2022-11-08T01:06:43.240Z,98434.72
2022-11-08T01:09:09.775Z,98429.84
2022-11-08T01:11:37.613Z,98430.44
2022-11-08T01:14:04.092Z,98422.03
2022-11-08T01:16:33.548Z,98415.50
2022-11-08T01:19:00.356Z,98418.91
2022-11-08T01:21:27.426Z,98412.69
2022-11-08T01:23:54.531Z,98402.44
2022-11-08T01:26:26.645Z,98412.13
2022-11-08T01:28:54.367Z,98410.28
2022-11-08T01:31:23.287Z,98406.78
2022-11-08T01:33:51.782Z,98402.44
2022-11-08T01:36:21.840Z,98393.84
2022-11-08T01:38:48.642Z,98397.94
2022-11-08T01:41:16.718Z,98403.16
2022-11-08T01:43:50.268Z,98392.31
2022-11-08T01:46:19.564Z,98400.34
2022-11-08T01:48:59.351Z,98392.09
2022-11-08T01:51:41.581Z,98384.19
2022-11-08T01:54:15.746Z,98384.63
2022-11-08T01:56:42.445Z,98382.19
2022-11-08T01:59:11.397Z,98374.16
2022-11-08T02:01:38.425Z,98378.13
2022-11-08T02:04:05.766Z,98376.50
2022-11-08T02:06:36.046Z,98377.31
2022-11-08T02:09:05.043Z,98375.91
2022-11-08T02:11:32.681Z,98371.59
2022-11-08T02:13:59.404Z,98365.06
2022-11-08T02:16:25.844Z,98369.25
2022-11-08T02:18:52.381Z,98355.88
2022-11-08T02:21:46.371Z,98360.75
2022-11-08T02:24:13.338Z,98360.75
2022-11-08T02:26:40.726Z,98365.66
2022-11-08T02:29:23.920Z,98347.84
2022-11-08T02:31:50.463Z,98350.06
2022-11-08T02:34:17.091Z,98349.34
2022-11-08T02:36:46.892Z,98349.94
2022-11-08T02:39:13.285Z,98339.56
2022-11-08T02:41:39.679Z,98338.41
2022-11-08T02:44:06.183Z,98342.47
2022-11-08T02:46:32.812Z,98342.47
2022-11-08T02:48:59.216Z,98340.63
2022-11-08T02:51:25.620Z,98327.69
2022-11-08T02:53:52.034Z,98328.84
2022-11-08T02:56:18.440Z,98321.97
2022-11-08T02:58:44.815Z,98322.53
2022-11-08T03:01:11.334Z,98321.03
2022-11-08T03:03:37.826Z,98311.34
2022-11-08T03:06:04.274Z,98312.59
2022-11-08T03:08:30.720Z,98318.69
2022-11-08T03:10:59.931Z,98313.09
2022-11-08T03:13:26.364Z,98319.38
2022-11-08T03:15:52.798Z,98306.94
2022-11-08T03:18:19.516Z,98306.72
2022-11-08T03:20:46.118Z,98306.00
2022-11-08T03:23:12.577Z,98304.72
2022-11-08T03:25:39.045Z,98305.19
2022-11-08T03:28:08.055Z,98299.84
2022-11-08T03:30:35.412Z,98288.09
2022-11-08T03:33:01.883Z,98294.16
2022-11-08T03:35:28.687Z,98301.38
2022-11-08T03:37:56.846Z,98302.19
2022-11-08T03:40:24.258Z,98304.53
2022-11-08T03:42:50.674Z,98304.88
2022-11-08T03:45:17.363Z,98297.75
2022-11-08T03:47:45.652Z,98297.75
2022-11-08T03:50:14.276Z,98293.69
2022-11-08T03:52:45.976Z,98304.66
2022-11-08T03:55:12.862Z,98302.31
2022-11-08T03:57:41.984Z,98295.22
2022-11-08T04:00:10.674Z,98297.28
2022-11-08T04:02:37.279Z,98298.09
2022-11-08T04:05:04.677Z,98298.09
2022-11-08T04:07:31.108Z,98293.56
2022-11-08T04:09:57.553Z,98293.31
2022-11-08T04:12:42.757Z,98292.84
2022-11-08T04:15:16.307Z,98296.78
2022-11-08T04:18:02.959Z,98295.97
2022-11-08T04:20:48.188Z,98292.28
2022-11-08T04:23:16.334Z,98299.00
2022-11-08T04:25:43.356Z,98294.81
2022-11-08T04:28:10.395Z,98298.56
2022-11-08T04:30:37.212Z,98292.75
2022-11-08T04:33:05.156Z,98291.66
2022-11-08T04:35:31.884Z,98300.41
2022-11-08T04:38:02.656Z,98305.06
2022-11-08T04:40:31.125Z,98296.22
2022-11-08T04:42:57.563Z,98298.56
2022-11-08T04:45:23.969Z,98298.66
2022-11-08T04:47:50.402Z,98307.47
2022-11-08T04:50:16.912Z,98308.16
2022-11-08T04:52:43.297Z,98299.69
2022-11-08T04:55:09.843Z,98297.13
2022-11-08T04:57:36.236Z,98291.78
2022-11-08T05:00:02.945Z,98293.66
2022-11-08T05:02:29.509Z,98293.97
2022-11-08T05:04:56.095Z,98298.53
2022-11-08T05:07:22.512Z,98305.50
2022-11-08T05:09:48.898Z,98303.75
2022-11-08T05:12:15.363Z,98312.44
2022-11-08T05:14:41.772Z,98311.16
2022-11-08T05:17:08.226Z,98303.41
2022-11-08T05:19:53.173Z,98301.75
2022-11-08T05:22:37.935Z,98303.06
2022-11-08T05:25:04.724Z,98305.72
2022-11-08T05:27:31.178Z,98298.28
2022-11-08T05:29:57.580Z,98295.03
2022-11-08T05:32:24.027Z,98291.88
2022-11-08T05:34:50.427Z,98300.38
2022-11-08T05:37:16.977Z,98291.56
2022-11-08T05:39:43.436Z,98298.56
2022-11-08T05:42:10.034Z,98297.50
2022-11-08T05:44:36.587Z,98302.25
2022-11-08T05:47:03.249Z,98302.72
2022-11-08T05:49:29.644Z,98302.13
2022-11-08T05:51:56.334Z,98307.63
2022-11-08T05:54:22.740Z,98315.97
2022-11-08T05:56:49.187Z,98318.19
2022-11-08T05:59:15.612Z,98316.25
2022-11-08T06:01:42.205Z,98327.13
2022-11-08T06:04:08.642Z,98316.81
2022-11-08T06:06:35.141Z,98332.16
2022-11-08T06:09:01.538Z,98332.16
2022-11-08T06:11:28.498Z,98330.53
2022-11-08T06:13:55.615Z,98323.31
2022-11-08T06:16:23.841Z,98327.97
2022-11-08T06:18:50.479Z,98326.94
2022-11-08T06:21:19.142Z,98332.03
2022-11-08T06:23:46.113Z,98334.84
2022-11-08T06:26:12.982Z,98343.47
2022-11-08T06:28:39.571Z,98353.59
2022-11-08T06:31:06.018Z,98348.03
2022-11-08T06:33:32.584Z,98351.09
2022-11-08T06:35:59.014Z,98352.53
2022-11-08T06:38:25.682Z,98356.53
2022-11-08T06:40:52.130Z,98358.06
2022-11-08T06:43:20.255Z,98354.56
2022-11-08T06:45:47.238Z,98356.38
2022-11-08T06:48:13.748Z,98365.09
2022-11-08T06:50:41.831Z,98358.59
2022-11-08T06:53:11.837Z,98363.63
2022-11-08T06:55:38.314Z,98367.16
2022-11-08T06:58:05.038Z,98364.03
2022-11-08T07:00:32.100Z,98367.63
2022-11-08T07:03:00.940Z,98371.94
2022-11-08T07:05:28.712Z,98371.34
2022-11-08T07:07:57.967Z,98369.72
2022-11-08T07:10:27.393Z,98362.84
2022-11-08T07:13:00.232Z,98367.88
2022-11-08T07:15:26.815Z,98374.84
2022-11-08T07:17:53.310Z,98375.22
2022-11-08T07:20:19.759Z,98364.97
2022-11-08T07:22:46.219Z,98366.59
2022-11-08T07:25:12.646Z,98369.59
2022-11-08T07:27:39.074Z,98360.16
2022-11-08T07:30:06.109Z,98357.41
2022-11-08T07:32:32.518Z,98359.13
2022-11-08T07:34:58.928Z,98365.06
2022-11-08T07:37:25.334Z,98354.47
2022-11-08T07:39:51.739Z,98358.31
2022-11-08T07:42:18.129Z,98359.47
2022-11-08T07:44:44.565Z,98352.84
2022-11-08T07:47:10.958Z,98355.75
2022-11-08T07:49:37.348Z,98351.31
2022-11-08T07:52:03.956Z,98363.78
2022-11-08T07:54:30.360Z,98355.53
2022-11-08T07:56:56.771Z,98361.91
2022-11-08T07:59:23.222Z,98361.09
2022-11-08T08:01:49.784Z,98363.78
2022-11-08T08:04:16.213Z,98354.47
2022-11-08T08:06:42.621Z,98359.81
2022-11-08T08:09:09.171Z,98359.00
2022-11-08T08:11:35.750Z,98362.69
2022-11-08T08:14:02.263Z,98369.16
2022-11-08T08:16:28.675Z,98368.25
2022-11-08T08:18:56.627Z,98368.31
2022-11-08T08:21:23.499Z,98380.41
2022-11-08T08:23:51.340Z,98377.25
2022-11-08T08:26:17.747Z,98369.09
2022-11-08T08:28:44.136Z,98368.72
2022-11-08T08:31:10.544Z,98389.06
2022-11-08T08:33:38.492Z,98386.44
2022-11-08T08:36:05.382Z,98381.06
2022-11-08T08:38:33.532Z,98373.28
2022-11-08T08:41:01.228Z,98385.09
2022-11-08T08:43:28.970Z,98391.16
2022-11-08T08:45:59.857Z,98387.81
2022-11-08T08:48:26.582Z,98385.59
2022-11-08T08:50:53.023Z,98389.53
2022-11-08T08:53:19.923Z,98392.50
2022-11-08T08:55:52.392Z,98384.03
2022-11-08T08:58:20.920Z,98383.38
2022-11-08T09:03:34.685Z,98385.38
2022-11-08T09:06:01.966Z,98385.22
2022-11-08T09:08:29.392Z,98391.25
2022-11-08T09:11:02.666Z,98389.94
2022-11-08T09:13:30.982Z,98393.53
2022-11-08T09:15:58.733Z,98394.94
2022-11-08T09:18:25.202Z,98390.06
2022-11-08T09:20:58.442Z,98391.50
2022-11-08T09:23:25.232Z,98391.19
2022-11-08T09:26:05.851Z,98390.06
2022-11-08T09:28:34.269Z,98389.69
2022-11-08T09:31:05.487Z,98402.09
2022-11-08T09:33:32.184Z,98386.22
2022-11-08T09:36:00.545Z,98381.59
2022-11-08T09:38:27.097Z,98389.69
2022-11-08T09:41:08.590Z,98389.69
2022-11-08T09:43:47.546Z,98396.13
2022-11-08T09:46:31.416Z,98399.00
2022-11-08T09:49:01.355Z,98395.75
2022-11-08T09:51:31.580Z,98395.97
2022-11-08T09:54:03.507Z,98389.72
2022-11-08T09:56:32.889Z,98391.75
2022-11-08T09:59:38.112Z,98391.91
2022-11-08T10:02:16.894Z,98391.16
2022-11-08T10:04:49.125Z,98388.91
2022-11-08T10:07:41.488Z,98388.66
2022-11-08T10:10:37.829Z,98383.28
2022-11-08T10:13:32.073Z,98387.91
2022-11-08T10:16:16.904Z,98385.56
2022-11-08T10:18:43.287Z,98386.22
2022-11-08T10:21:40.831Z,98378.84
2022-11-08T10:24:25.243Z,98379.56
2022-11-08T10:26:54.824Z,98375.97
2022-11-08T10:29:23.482Z,98379.25
2022-11-08T10:32:01.332Z,98370.41
2022-11-08T10:34:34.805Z,98364.94
2022-11-08T10:37:04.152Z,98365.50
2022-11-08T10:39:38.114Z,98364.72
2022-11-08T10:42:15.439Z,98370.84
2022-11-08T10:44:42.734Z,98363.78
2022-11-08T10:47:24.572Z,98351.00
2022-11-08T10:49:52.306Z,98347.00
2022-11-08T10:52:27.843Z,98349.06
2022-11-08T10:54:56.001Z,98346.41
2022-11-08T10:57:31.301Z,98339.13
2022-11-08T11:00:16.439Z,98337.72
2022-11-08T11:02:43.425Z,98332.31
2022-11-08T11:05:15.872Z,98328.81
2022-11-08T11:07:46.691Z,98333.34
2022-11-08T11:10:27.366Z,98329.09
2022-11-08T11:13:10.876Z,98331.16
2022-11-08T11:15:58.368Z,98318.50
2022-11-08T11:18:45.264Z,98327.06
2022-11-08T11:21:16.602Z,98316.53
2022-11-08T11:23:46.563Z,98310.94
2022-11-08T11:26:34.224Z,98317.97
2022-11-08T11:29:09.430Z,98316.09
2022-11-08T11:31:38.797Z,98313.88
2022-11-08T11:34:17.413Z,98317.06
2022-11-08T11:36:54.388Z,98321.09
2022-11-08T11:39:39.413Z,98308.88
2022-11-08T11:42:44.348Z,98301.25
2022-11-08T11:45:18.236Z,98300.72
2022-11-08T11:47:50.375Z,98297.22
2022-11-08T11:50:39.866Z,98283.44
2022-11-08T11:53:33.013Z,98286.94
2022-11-08T11:56:38.212Z,98277.59
2022-11-08T11:59:34.440Z,98277.63
2022-11-08T12:02:39.729Z,98262.28
2022-11-08T12:05:06.106Z,98252.31
2022-11-08T12:07:38.199Z,98260.16
2022-11-08T12:10:13.498Z,98266.34
2022-11-08T12:12:51.826Z,98259.03
2022-11-08T12:15:54.286Z,98254.28
2022-11-08T12:18:42.282Z,98257.72
2022-11-08T12:21:09.858Z,98244.72
2022-11-08T12:24:03.368Z,98236.44
2022-11-08T12:26:56.370Z,98226.03
2022-11-08T12:29:37.730Z,98232.72
2022-11-08T12:32:10.166Z,98230.41
2022-11-08T12:34:54.103Z,98228.00
2022-11-08T12:37:52.307Z,98235.41
2022-11-08T12:40:24.558Z,98227.56
2022-11-08T12:43:17.085Z,98213.13
2022-11-08T12:46:16.487Z,98219.47
2022-11-08T12:49:04.077Z,98227.94
2022-11-08T12:51:33.495Z,98223.31
2022-11-08T12:54:15.267Z,98204.72
2022-11-08T12:56:45.438Z,98207.00
2022-11-08T12:59:29.203Z,98198.19
2022-11-08T13:01:56.811Z,98198.72
2022-11-08T13:04:46.649Z,98196.53
2022-11-08T13:07:34.909Z,98196.00
2022-11-08T13:10:23.048Z,98201.56
2022-11-08T13:13:14.680Z,98182.13
2022-11-08T13:16:06.830Z,98188.44
2022-11-08T13:18:36.266Z,98182.19
2022-11-08T13:21:25.580Z,98181.16
2022-11-08T13:23:53.214Z,98184.28
2022-11-08T13:26:24.298Z,98177.41
2022-11-08T13:28:51.649Z,98171.03
2022-11-08T13:31:36.517Z,98174.97
2022-11-08T13:34:28.362Z,98163.84
2022-11-08T13:37:04.737Z,98166.81
2022-11-08T13:39:49.290Z,98157.75
2022-11-08T13:42:15.670Z,98161.63
2022-11-08T13:44:56.698Z,98167.69
2022-11-08T13:47:32.393Z,98167.13
2022-11-08T13:50:29.955Z,98152.09
2022-11-08T13:53:24.073Z,98158.50
2022-11-08T13:55:53.449Z,98148.16
2022-11-08T13:58:29.171Z,98159.00
2022-11-08T14:00:56.746Z,98151.69
2022-11-08T14:03:35.078Z,98146.56
2022-11-08T14:06:06.300Z,98153.69
2022-11-08T14:08:58.392Z,98154.00
2022-11-08T14:11:43.315Z,98152.13
2022-11-08T14:14:24.833Z,98144.06
2022-11-08T14:17:15.175Z,98156.81
2022-11-08T14:19:45.763Z,98153.78
2022-11-08T14:22:21.764Z,98146.78
2022-11-08T14:24:51.119Z,98147.81
2022-11-08T14:27:36.892Z,98138.66
2022-11-08T14:30:05.744Z,98136.03
2022-11-08T14:32:32.300Z,98138.75
2022-11-08T14:35:22.369Z,98133.84
2022-11-08T14:37:49.240Z,98137.09
2022-11-08T14:40:28.208Z,98130.94
2022-11-08T14:42:56.141Z,98129.84
2022-11-08T14:45:27.334Z,98141.47
2022-11-08T14:48:04.468Z,98130.38
2022-11-08T14:50:34.032Z,98130.66
2022-11-08T14:53:27.020Z,98140.97
2022-11-08T14:56:18.349Z,98147.44
2022-11-08T14:58:46.114Z,98142.59
2022-11-08T15:01:14.243Z,98143.13
2022-11-08T15:03:47.230Z,98153.94
2022-11-08T15:06:14.442Z,98146.09
2022-11-08T15:08:51.207Z,98148.78
2022-11-08T15:11:30.698Z,98145.84
2022-11-08T15:13:59.333Z,98133.69
2022-11-08T15:16:26.439Z,98135.03
2022-11-08T15:18:52.867Z,98125.31
2022-11-08T15:21:32.038Z,98134.56
2022-11-08T15:24:16.271Z,98151.56
2022-11-08T15:27:06.617Z,98143.47
2022-11-08T15:29:53.401Z,98138.88
2022-11-08T15:32:21.998Z,98143.19
2022-11-08T15:34:52.842Z,98138.88
2022-11-08T15:37:36.025Z,98136.72
2022-11-08T15:40:15.908Z,98139.41
2022-11-08T15:42:47.924Z,98140.50
2022-11-08T15:45:14.299Z,98158.31
2022-11-08T15:47:46.066Z,98147.81
2022-11-08T15:50:19.659Z,98151.59
2022-11-08T15:52:51.498Z,98157.81
2022-11-08T15:55:21.419Z,98159.44
2022-11-08T15:57:49.323Z,98155.66
2022-11-08T16:00:18.821Z,98157.28
2022-11-08T16:02:45.614Z,98153.75
2022-11-08T16:05:21.306Z,98163.72
2022-11-08T16:07:47.799Z,98174.00
2022-11-08T16:10:16.544Z,98171.81
2022-11-08T16:12:45.115Z,98176.13
2022-11-08T16:15:16.376Z,98173.94
2022-11-08T16:17:42.818Z,98176.91
2022-11-08T16:20:20.048Z,98177.94
2022-11-08T16:22:46.464Z,98177.13
2022-11-08T16:25:13.010Z,98184.13
2022-11-08T16:27:39.592Z,98176.03
2022-11-08T16:30:14.472Z,98177.63
2022-11-08T16:32:41.625Z,98179.22
2022-11-08T16:35:10.303Z,98184.06
2022-11-08T16:37:38.191Z,98181.88
2022-11-08T16:40:15.653Z,98158.69
2022-11-08T16:42:42.094Z,98159.47
2022-11-08T16:45:09.136Z,98155.66
2022-11-08T16:47:35.936Z,98161.81
2022-11-08T16:50:02.726Z,98165.59
2022-11-08T16:52:29.125Z,98167.75
2022-11-08T16:54:55.553Z,98165.56
2022-11-08T16:57:34.138Z,98164.19
2022-11-08T17:00:01.329Z,98150.78
2022-11-08T17:02:33.049Z,98159.69
2022-11-08T17:04:59.592Z,98152.38
2022-11-08T17:07:27.614Z,98151.91
2022-11-08T17:09:54.190Z,98162.97
2022-11-08T17:12:21.285Z,98166.16
2022-11-08T17:14:47.789Z,98173.88
2022-11-08T17:17:15.170Z,98166.09
2022-11-08T17:19:41.735Z,98173.88
2022-11-08T17:22:08.130Z,98182.84
2022-11-08T17:24:34.569Z,98174.78
2022-11-08T17:27:02.101Z,98175.56
2022-11-08T17:29:28.576Z,98188.78
2022-11-08T17:31:54.999Z,98184.50
2022-11-08T17:34:21.475Z,98193.09
2022-11-08T17:36:48.107Z,98186.63
2022-11-08T17:39:14.506Z,98183.44
2022-11-08T17:41:41.024Z,98184.47
2022-11-08T17:44:07.544Z,98189.25
2022-11-08T17:46:33.973Z,98201.16
2022-11-08T17:49:00.408Z,98194.63
2022-11-08T17:51:26.845Z,98193.56
2022-11-08T17:53:53.307Z,98191.47
2022-11-08T17:56:19.721Z,98192.25
2022-11-08T17:58:46.202Z,98194.63
2022-11-08T18:01:12.820Z,98203.75
2022-11-08T18:03:40.407Z,98194.06
2022-11-08T18:06:12.202Z,98194.63
2022-11-08T18:08:38.716Z,98191.91
2022-11-08T18:11:05.717Z,98184.31
2022-11-08T18:13:32.694Z,98189.50
2022-11-08T18:16:13.257Z,98184.88
2022-11-08T18:18:40.293Z,98179.97
2022-11-08T18:21:08.025Z,98178.19
2022-11-08T18:23:34.593Z,98181.09
2022-11-08T18:26:01.143Z,98179.44
2022-11-08T18:28:27.807Z,98181.63
2022-11-08T18:30:54.317Z,98172.81
2022-11-08T18:33:21.860Z,98168.19
2022-11-08T18:35:48.494Z,98176.25
2022-11-08T18:38:14.963Z,98176.78
2022-11-08T18:40:43.974Z,98176.53
2022-11-08T18:43:10.379Z,98171.47
2022-11-08T18:45:36.823Z,98169.84
2022-11-08T18:48:03.456Z,98170.91
2022-11-08T18:50:29.889Z,98167.75
2022-11-08T18:53:00.884Z,98178.75
2022-11-08T18:55:31.299Z,98187.59
2022-11-08T18:57:57.860Z,98167.16
2022-11-08T19:00:24.404Z,98169.91
2022-11-08T19:02:50.947Z,98180.59
2022-11-08T19:05:17.435Z,98176.88
2022-11-08T19:07:43.889Z,98173.97
2022-11-08T19:10:10.590Z,98173.66
2022-11-08T19:12:37.019Z,98178.44
2022-11-08T19:15:03.738Z,98181.66
2022-11-08T19:17:31.856Z,98181.09
2022-11-08T19:19:58.310Z,98183.50
2022-11-08T19:22:24.779Z,98187.50
2022-11-08T19:24:51.191Z,98175.94
2022-11-08T19:27:17.677Z,98184.66
2022-11-08T19:29:44.084Z,98176.59
2022-11-08T19:32:10.574Z,98173.72
2022-11-08T19:34:37.185Z,98171.78
2022-11-08T19:37:03.715Z,98179.34
2022-11-08T19:39:30.274Z,98167.47
2022-11-08T19:41:56.711Z,98169.41
2022-11-08T19:44:23.377Z,98172.59
2022-11-08T19:46:49.880Z,98176.31
2022-11-08T19:49:16.334Z,98175.28
2022-11-08T19:51:42.740Z,98175.78
2022-11-08T19:54:12.877Z,98171.16
2022-11-08T19:59:25.781Z,98170.41
2022-11-08T20:01:52.286Z,98180.31
2022-11-08T20:04:19.277Z,98178.94
2022-11-08T20:06:46.421Z,98183.00
2022-11-08T20:09:12.942Z,98173.09
2022-11-08T20:11:41.011Z,98173.91
2022-11-08T20:14:08.482Z,98176.59
2022-11-08T20:16:41.862Z,98188.44
2022-11-08T20:19:09.645Z,98183.94
2022-11-08T20:21:38.728Z,98185.81
2022-11-08T20:24:05.618Z,98192.28
2022-11-08T20:26:32.378Z,98189.50
2022-11-08T20:28:58.804Z,98187.31
2022-11-08T20:31:25.700Z,98189.78
2022-11-08T20:33:53.642Z,98186.81
2022-11-08T20:36:22.344Z,98185.75
2022-11-08T20:38:49.445Z,98189.72
2022-11-08T20:41:17.533Z,98188.91
2022-11-08T20:43:46.573Z,98181.34
2022-11-08T20:46:18.875Z,98184.84
2022-11-08T20:48:50.748Z,98176.03
2022-11-08T20:51:19.113Z,98174.94
2022-11-08T20:53:45.552Z,98183.78
2022-11-08T20:56:18.195Z,98182.66
2022-11-08T20:58:45.602Z,98181.78
2022-11-08T21:01:14.471Z,98179.09
2022-11-08T21:03:44.575Z,98180.97
2022-11-08T21:06:13.667Z,98198.16
2022-11-08T21:11:26.890Z,98187.69
2022-11-08T21:13:53.283Z,98187.91
2022-11-08T21:16:29.978Z,98192.38
2022-11-08T21:18:57.576Z,98195.16
2022-11-08T21:21:24.146Z,98188.84
2022-11-08T21:23:51.046Z,98180.75
2022-11-08T21:26:19.223Z,98184.56
2022-11-08T21:28:46.672Z,98178.38
2022-11-08T21:31:13.822Z,98171.59
2022-11-08T21:33:40.298Z,98173.50
2022-11-08T21:36:07.612Z,98161.91
2022-11-08T21:38:38.354Z,98166.34
2022-11-08T21:41:07.093Z,98155.81
2022-11-08T21:43:38.657Z,98161.19
2022-11-08T21:46:21.555Z,98162.81
2022-11-08T21:48:53.693Z,98162.06
2022-11-08T21:51:20.580Z,98163.13
2022-11-08T21:53:53.881Z,98163.19
2022-11-08T21:56:25.460Z,98156.38
2022-11-08T21:58:52.431Z,98162.00
2022-11-08T22:01:19.688Z,98165.31
2022-11-08T22:03:46.385Z,98160.97
2022-11-08T22:06:13.148Z,98164.22
2022-11-08T22:08:39.590Z,98158.50
2022-11-08T22:11:06.100Z,98165.53
2022-11-08T22:13:32.580Z,98168.75
2022-11-08T22:15:59.004Z,98174.66
2022-11-08T22:18:43.577Z,98178.16
2022-11-08T22:21:30.558Z,98170.06
2022-11-08T22:23:56.987Z,98183.78
2022-11-08T22:26:23.585Z,98176.03
2022-11-08T22:28:50.047Z,98180.31
2022-11-08T22:31:16.484Z,98180.75
2022-11-08T22:33:42.931Z,98178.38
2022-11-08T22:36:09.493Z,98183.53
2022-11-08T22:38:36.199Z,98176.50
2022-11-08T22:41:02.668Z,98190.22
2022-11-08T22:43:29.076Z,98190.44
2022-11-08T22:45:55.731Z,98187.84
2022-11-08T22:48:22.806Z,98191.34
2022-11-08T22:50:49.418Z,98177.84
2022-11-08T22:53:16.120Z,98176.69
2022-11-08T22:55:44.575Z,98178.06
2022-11-08T22:58:11.840Z,98188.41
2022-11-08T23:00:38.305Z,98182.72
2022-11-08T23:03:04.765Z,98180.03
2022-11-08T23:05:31.564Z,98182.38
2022-11-08T23:07:57.988Z,98177.06
2022-11-08T23:10:24.426Z,98171.13
2022-11-08T23:13:09.747Z,98179.66
2022-11-08T23:15:55.190Z,98174.56
2022-11-08T23:18:22.884Z,98179.59
2022-11-08T23:21:08.227Z,98171.53
2022-11-08T23:24:00.282Z,98169.81
2022-11-08T23:26:45.275Z,98180.28
2022-11-08T23:29:30.633Z,98177.38
2022-11-08T23:31:57.378Z,98171.66
2022-11-08T23:34:23.807Z,98170.34
2022-11-08T23:36:50.217Z,98170.34
2022-11-08T23:39:16.601Z,98172.09
2022-11-08T23:42:01.349Z,98175.63
2022-11-08T23:44:27.817Z,98180.00
2022-11-08T23:46:59.692Z,98184.22
2022-11-08T23:49:26.752Z,98184.22
2022-11-08T23:51:53.503Z,98178.97
2022-11-08T23:54:20.066Z,98179.03
2022-11-08T23:56:46.522Z,98180.63
2022-11-08T23:59:14.436Z,98177.94
